Time;durP1;ratioP1;P1;durP2;ratioP2;P2;SDS_P1;SDS_P2;PMS_P1;PMS_P2;Temp;Humidity;BMP_temperature;BMP_pressure;BME280_temperature;BME280_humidity;BME280_pressure;Samples;Min_cycle;Max_cycle;Signal;HPM_P1;HPM_P2
2023/04/07 00:01:54;;;;;;;;;;;5.40;80.90;;;4.15;74.72;95866.53;4953945;29;19929;-89
2023/04/07 00:04:22;;;;;;;;;;;5.40;81.00;;;4.15;74.95;95860.31;4970445;28;20125;-88
2023/04/07 00:06:50;;;;;;;;;;;5.40;80.90;;;4.14;75.05;95858.66;4939438;29;19929;-87
2023/04/07 00:09:18;;;;;;;;;;;5.40;80.90;;;4.14;74.87;95861.38;4971382;28;19922;-86
2023/04/07 00:11:47;;;;;;;;;;;5.40;80.90;;;4.14;74.83;95856.75;4970581;28;20226;-88
2023/04/07 00:14:15;;;;;;;;;;;5.40;80.90;;;4.14;74.90;95847.81;4954120;29;19922;-88
2023/04/07 00:16:44;;;;;;;;;;;5.40;80.90;;;4.13;74.69;95860.53;4938730;29;19923;-88
2023/04/07 00:19:13;;;;;;;;;;;5.40;80.90;;;4.13;74.63;95857.00;4938402;29;19923;-87
2023/04/07 00:21:41;;;;;;;;;;;5.40;80.80;;;4.11;75.17;95846.41;4986803;28;19922;-87
2023/04/07 00:24:09;;;;;;;;;;;5.40;80.90;;;4.13;74.85;95854.28;4970167;28;20122;-87
2023/04/07 00:26:37;;;;;;;;;;;5.40;80.90;;;4.13;75.08;95848.88;4955017;29;20210;-87
2023/04/07 00:29:05;;;;;;;;;;;5.40;80.80;;;4.11;74.98;95837.44;4954608;29;19922;-87
2023/04/07 00:31:32;;;;;;;;;;;5.40;80.80;;;4.12;74.88;95844.53;4938789;29;19922;-87
2023/04/07 00:34:02;;;;;;;;;;;5.40;80.90;;;4.11;75.14;95834.75;4954153;29;19922;-88
2023/04/07 00:36:30;;;;;;;;;;;5.40;80.80;;;4.12;74.63;95841.81;4955604;29;19923;-88
2023/04/07 00:38:58;;;;;;;;;;;5.30;80.90;;;4.10;74.73;95833.94;4938332;29;20120;-88
2023/04/07 00:41:26;;;;;;;;;;;5.30;80.80;;;4.12;74.54;95833.69;4938312;29;19923;-88
2023/04/07 00:43:54;;;;;;;;;;;5.40;80.80;;;4.11;74.99;95827.47;4969417;28;19929;-87
2023/04/07 00:46:22;;;;;;;;;;;5.30;80.90;;;4.10;74.75;95838.50;4953913;29;20234;-88
2023/04/07 00:48:50;;;;;;;;;;;5.30;80.90;;;4.11;74.81;95832.03;4986686;28;19929;-87
2023/04/07 00:51:20;;;;;;;;;;;5.30;80.90;;;4.10;74.65;95835.81;4962373;28;19929;-87
2023/04/07 00:53:48;;;;;;;;;;;5.40;80.90;;;4.11;74.87;95840.16;4953879;29;20232;-87
2023/04/07 00:56:16;;;;;;;;;;;5.30;80.90;;;4.09;74.96;95843.13;4954458;29;20117;-87
2023/04/07 00:58:44;;;;;;;;;;;5.30;80.90;;;4.09;74.59;95839.56;4954040;28;19922;-87
2023/04/07 01:01:15;;;;;;;;;;;5.40;80.90;;;4.10;74.79;95841.22;4954400;29;19922;-87
2023/04/07 01:03:46;;;;;;;;;;;5.30;80.90;;;4.10;74.69;95830.38;4938115;29;19923;-87
2023/04/07 01:06:16;;;;;;;;;;;5.30;80.90;;;4.09;74.74;95839.56;4970308;28;19993;-87
2023/04/07 01:08:50;;;;;;;;;;;5.30;80.90;;;4.09;74.98;95839.56;4937466;29;19922;-87
2023/04/07 01:11:22;;;;;;;;;;;5.30;81.00;;;4.09;74.89;95839.56;4970368;28;19923;-87
2023/04/07 01:13:51;;;;;;;;;;;5.30;80.90;;;4.09;75.07;95836.88;4954143;29;19923;-88
2023/04/07 01:16:31;;;;;;;;;;;5.30;80.90;;;4.08;74.63;95827.09;4954306;29;19922;-88
2023/04/07 01:19:04;;;;;;;;;;;5.30;80.90;;;4.08;75.12;95836.06;4953937;29;19923;-87
2023/04/07 01:21:33;;;;;;;;;;;5.30;80.90;;;4.07;74.97;95842.53;4953887;29;19926;-87
2023/04/07 01:24:12;;;;;;;;;;;5.30;81.00;;;4.08;74.78;95838.75;4937457;29;19929;-88
2023/04/07 01:26:41;;;;;;;;;;;5.30;80.90;;;4.08;74.97;95837.94;4959635;28;20232;-87
2023/04/07 01:29:31;;;;;;;;;;;5.30;80.90;;;4.07;75.07;95842.53;4953610;29;19923;-87
2023/04/07 01:32:00;;;;;;;;;;;5.30;81.00;;;4.06;74.77;95834.66;4969674;28;19923;-87
2023/04/07 01:34:29;;;;;;;;;;;5.30;80.90;;;4.07;74.64;95836.28;4952891;28;19929;-87
2023/04/07 01:36:58;;;;;;;;;;;5.30;81.10;;;4.07;74.80;95825.44;4937427;29;19922;-88
2023/04/07 01:39:26;;;;;;;;;;;5.30;81.00;;;4.07;74.56;95831.69;4937376;29;19929;-88
2023/04/07 01:41:54;;;;;;;;;;;5.30;80.90;;;4.07;75.13;95830.84;4953299;29;19923;-87
2023/04/07 01:44:24;;;;;;;;;;;5.30;80.90;;;4.08;74.60;95827.09;4937191;29;19922;-87
2023/04/07 01:46:52;;;;;;;;;;;5.30;80.90;;;4.06;74.88;95824.63;4969396;28;19929;-87
2023/04/07 01:49:20;;;;;;;;;;;5.30;80.90;;;4.05;75.12;95827.59;4953199;29;19929;-88
2023/04/07 01:51:49;;;;;;;;;;;5.30;81.00;;;4.05;74.59;95836.53;4953429;29;19949;-87
2023/04/07 01:54:17;;;;;;;;;;;5.30;81.00;;;4.06;74.96;95834.66;4953574;29;20113;-88
2023/04/07 01:56:45;;;;;;;;;;;5.30;80.90;;;4.06;74.72;95831.94;4953080;29;19922;-87
2023/04/07 01:59:13;;;;;;;;;;;5.30;81.00;;;4.06;75.00;95834.66;4937130;29;19923;-88
2023/04/07 02:01:43;;;;;;;;;;;5.30;81.00;;;4.06;75.04;95826.53;4939108;29;19933;-87
2023/04/07 02:04:12;;;;;;;;;;;5.30;81.10;;;4.05;74.99;95824.88;4921017;29;19995;-88
2023/04/07 02:06:43;;;;;;;;;;;5.30;81.10;;;4.04;75.01;95832.16;4952884;29;19923;-88
2023/04/07 02:09:11;;;;;;;;;;;5.30;81.10;;;4.04;75.19;95829.47;4952573;29;19922;-87
2023/04/07 02:11:39;;;;;;;;;;;5.30;81.00;;;4.04;75.12;95836.78;4937135;29;19945;-88
2023/04/07 02:14:07;;;;;;;;;;;5.30;81.00;;;4.03;75.16;95835.13;4935844;29;20099;-87
2023/04/07 02:16:48;;;;;;;;;;;5.30;81.00;;;4.02;74.76;95837.00;4921122;29;20135;-87
2023/04/07 02:19:16;;;;;;;;;;;5.30;81.00;;;4.03;74.70;95829.72;4936990;29;19926;-87
2023/04/07 02:21:44;;;;;;;;;;;5.30;80.90;;;4.03;75.34;95832.41;4939861;29;19934;-87
2023/04/07 02:24:12;;;;;;;;;;;5.30;81.00;;;4.04;75.10;95836.78;4940048;29;20241;-87
2023/04/07 02:26:42;;;;;;;;;;;5.30;81.00;;;4.02;74.81;95838.88;4956644;29;19922;-86
2023/04/07 02:29:10;;;;;;;;;;;5.30;81.00;;;4.01;74.88;95837.25;4940705;29;19923;-86
2023/04/07 02:31:38;;;;;;;;;;;5.30;81.10;;;3.99;75.21;95832.06;4940662;29;19936;-87
2023/04/07 02:34:08;;;;;;;;;;;5.30;81.10;;;4.02;74.94;95838.88;4940239;29;20210;-87
2023/04/07 02:36:36;;;;;;;;;;;5.30;81.10;;;4.01;74.75;95839.94;4924686;29;19937;-86
2023/04/07 02:39:04;;;;;;;;;;;5.20;80.90;;;4.01;74.96;95842.66;4957271;29;19923;-87
2023/04/07 02:41:32;;;;;;;;;;;5.20;80.90;;;4.01;74.73;95848.06;4940240;29;19926;-87
2023/04/07 02:44:01;;;;;;;;;;;5.20;81.00;;;3.98;74.83;95844.78;4924072;29;19923;-87
2023/04/07 02:46:29;;;;;;;;;;;5.30;81.10;;;3.98;75.23;95842.06;4940130;29;19923;-87
2023/04/07 02:48:58;;;;;;;;;;;5.20;81.00;;;3.99;75.01;95840.19;4924027;29;19928;-87
2023/04/07 02:51:27;;;;;;;;;;;5.20;81.00;;;3.99;74.98;95849.13;4940021;29;19922;-87
2023/04/07 02:53:55;;;;;;;;;;;5.20;80.90;;;3.99;74.86;95849.13;4965930;23;19944;-84
2023/04/07 02:56:23;;;;;;;;;;;5.20;80.90;;;4.00;75.04;95849.97;4973697;28;19922;-84
2023/04/07 02:58:51;;;;;;;;;;;5.20;80.90;;;3.99;75.25;95857.25;4974503;28;19922;-84
2023/04/07 03:01:20;;;;;;;;;;;5.20;80.90;;;3.99;74.71;95854.56;4974311;28;19922;-84
2023/04/07 03:03:48;;;;;;;;;;;5.20;80.90;;;3.99;75.17;95857.25;4975287;28;19929;-83
2023/04/07 03:06:21;;;;;;;;;;;5.20;80.90;;;3.99;74.86;95861.88;4957570;28;19986;-83
2023/04/07 03:09:05;;;;;;;;;;;5.20;80.90;;;3.98;75.07;95866.44;4974367;28;19929;-84
2023/04/07 03:11:34;;;;;;;;;;;5.20;80.90;;;3.98;74.90;95866.44;4974368;28;19929;-83
2023/04/07 03:14:02;;;;;;;;;;;5.20;80.90;;;3.96;75.15;95863.16;4973464;28;19922;-83
2023/04/07 03:16:32;;;;;;;;;;;5.20;80.90;;;3.98;75.01;95866.44;4973957;28;19929;-83
2023/04/07 03:19:05;;;;;;;;;;;5.20;80.90;;;3.95;75.14;95860.69;4954944;29;19990;-83
2023/04/07 03:21:37;;;;;;;;;;;5.20;80.90;;;3.97;74.58;95870.22;4955839;29;20202;-83
2023/04/07 03:24:07;;;;;;;;;;;5.20;80.90;;;3.96;74.53;95868.56;4954287;29;19929;-84
2023/04/07 03:26:36;;;;;;;;;;;5.20;81.00;;;3.97;75.18;95869.41;4954788;29;19922;-83
2023/04/07 03:29:06;;;;;;;;;;;5.20;81.00;;;3.95;75.10;95866.91;4938891;29;19922;-83
2023/04/07 03:31:36;;;;;;;;;;;5.20;80.90;;;3.94;75.20;95867.97;4953921;29;19922;-83
2023/04/07 03:34:04;;;;;;;;;;;5.20;80.90;;;3.95;75.13;95872.31;4974298;28;19922;-83
2023/04/07 03:36:32;;;;;;;;;;;5.20;80.90;;;3.94;74.95;95870.69;4973738;28;19922;-83
2023/04/07 03:39:05;;;;;;;;;;;5.20;81.00;;;3.94;75.06;95870.69;4973860;28;19922;-83
2023/04/07 03:41:34;;;;;;;;;;;5.20;80.90;;;3.95;75.07;95876.94;4957619;28;19926;-83
2023/04/07 03:44:02;;;;;;;;;;;5.20;80.90;;;3.94;74.84;95881.50;4973419;28;19922;-84
2023/04/07 03:46:32;;;;;;;;;;;5.20;80.90;;;3.95;74.75;95877.75;4973640;28;19945;-84
2023/04/07 03:49:00;;;;;;;;;;;5.20;80.90;;;3.94;74.76;95889.63;4957713;28;19929;-84
2023/04/07 03:51:28;;;;;;;;;;;5.20;81.00;;;3.95;75.00;95883.16;4957424;28;20090;-83
2023/04/07 03:53:59;;;;;;;;;;;5.20;80.90;;;3.94;74.81;95881.50;4972763;28;19937;-84
2023/04/07 03:56:37;;;;;;;;;;;5.20;80.90;;;3.93;74.55;95881.75;4957016;28;19922;-84
2023/04/07 03:59:06;;;;;;;;;;;5.20;80.90;;;3.93;74.59;95882.59;4954522;28;19922;-84
2023/04/07 04:01:38;;;;;;;;;;;5.20;80.90;;;3.94;75.19;95891.53;4972539;28;19977;-83
2023/04/07 04:04:13;;;;;;;;;;;5.20;80.90;;;3.94;74.80;95892.34;4956740;28;19922;-83
2023/04/07 04:06:41;;;;;;;;;;;5.20;80.90;;;3.92;74.96;95891.78;4957270;28;19922;-83
2023/04/07 04:09:35;;;;;;;;;;;5.20;80.90;;;3.93;74.78;95893.44;4972994;28;19922;-83
2023/04/07 04:12:05;;;;;;;;;;;5.20;80.90;;;3.93;74.71;95896.13;4957138;28;20235;-82
2023/04/07 04:14:37;;;;;;;;;;;5.20;80.90;;;3.93;75.01;95895.28;4956900;28;19922;-83
2023/04/07 04:17:06;;;;;;;;;;;5.20;80.90;;;3.93;75.23;95885.31;4956962;28;19922;-83
2023/04/07 04:19:42;;;;;;;;;;;5.20;81.00;;;3.94;74.50;95897.75;4957278;28;20217;-84
2023/04/07 04:22:23;;;;;;;;;;;5.20;80.90;;;3.93;75.14;95898.84;4957182;28;19922;-83
2023/04/07 04:24:58;;;;;;;;;;;5.20;80.80;;;3.94;74.80;95899.66;4972670;28;19922;-83
2023/04/07 04:27:30;;;;;;;;;;;5.20;80.90;;;3.94;75.09;95902.38;4957031;28;19922;-83
2023/04/07 04:30:16;;;;;;;;;;;5.20;80.90;;;3.94;74.68;95896.94;4957213;28;20121;-83
2023/04/07 04:33:04;;;;;;;;;;;5.20;80.90;;;3.93;75.14;95896.13;4972475;28;19932;-83
2023/04/07 04:35:38;;;;;;;;;;;5.20;80.90;;;3.94;74.73;95897.75;4972623;28;19922;-83
2023/04/07 04:38:18;;;;;;;;;;;5.20;80.80;;;3.94;74.49;95905.88;4956566;28;19922;-83
2023/04/07 04:40:54;;;;;;;;;;;5.20;80.90;;;3.95;74.74;95910.25;4956937;28;19922;-84
2023/04/07 04:43:28;;;;;;;;;;;5.20;80.90;;;3.94;74.63;95899.66;4955824;28;20121;-83
2023/04/07 04:45:57;;;;;;;;;;;5.20;80.80;;;3.94;74.86;95914.00;4956442;28;19926;-83
2023/04/07 04:48:28;;;;;;;;;;;5.20;80.80;;;3.95;74.92;95910.25;4972703;28;19922;-83
2023/04/07 04:50:55;;;;;;;;;;;5.20;80.80;;;3.95;74.72;95907.53;4973848;28;19922;-83
2023/04/07 04:53:24;;;;;;;;;;;5.20;80.80;;;3.95;75.06;95910.25;4972427;28;19948;-83
2023/04/07 04:55:58;;;;;;;;;;;5.20;80.70;;;3.95;74.93;95918.38;4940670;28;20102;-83
2023/04/07 04:58:48;;;;;;;;;;;5.20;80.80;;;3.96;74.79;95911.09;4956443;28;19922;-84
2023/04/07 05:01:25;;;;;;;;;;;5.20;80.70;;;3.96;74.86;95911.09;4956632;28;19923;-83
2023/04/07 05:04:00;;;;;;;;;;;5.20;80.60;;;3.96;74.96;95911.91;4940130;28;19922;-83
2023/04/07 05:06:31;;;;;;;;;;;5.20;80.60;;;3.96;74.66;95917.31;4956562;28;19922;-84
2023/04/07 05:09:04;;;;;;;;;;;5.20;80.60;;;3.98;74.92;95920.59;4940564;28;20225;-83
2023/04/07 05:11:41;;;;;;;;;;;5.20;80.60;;;3.98;74.77;95922.50;4936968;29;20250;-83
2023/04/07 05:14:10;;;;;;;;;;;5.20;80.50;;;3.98;74.54;95923.31;4921053;29;19923;-83
2023/04/07 05:16:43;;;;;;;;;;;5.20;80.50;;;3.99;74.29;95921.44;4956212;28;20232;-84
2023/04/07 05:19:16;;;;;;;;;;;5.20;80.60;;;3.99;74.35;95927.69;4956492;28;20127;-83
2023/04/07 05:21:44;;;;;;;;;;;5.20;80.40;;;3.99;74.65;95933.09;4956247;28;19922;-83
2023/04/07 05:24:13;;;;;;;;;;;5.30;80.60;;;4.01;74.74;95934.75;4956084;28;20130;-84
2023/04/07 05:26:41;;;;;;;;;;;5.30;80.50;;;4.02;74.48;95939.09;4956263;28;19923;-83
2023/04/07 05:29:11;;;;;;;;;;;5.30;80.50;;;4.03;74.32;95938.06;4956039;28;19928;-83
2023/04/07 05:31:40;;;;;;;;;;;5.30;80.50;;;4.05;74.62;95935.94;4955863;28;19922;-83
2023/04/07 05:34:12;;;;;;;;;;;5.30;80.30;;;4.06;74.24;95951.13;4939968;28;19922;-83
2023/04/07 05:36:46;;;;;;;;;;;5.30;80.30;;;4.09;74.10;95940.63;4955985;28;19928;-83
2023/04/07 05:39:14;;;;;;;;;;;5.30;80.20;;;4.13;73.90;95941.00;4973193;28;19922;-83
2023/04/07 05:41:42;;;;;;;;;;;5.40;80.00;;;4.20;74.02;95946.28;4940090;28;19928;-83
2023/04/07 05:44:12;;;;;;;;;;;5.40;79.80;;;4.27;73.53;95947.81;4939629;28;19926;-84
2023/04/07 05:46:42;;;;;;;;;;;5.50;79.50;;;4.37;73.21;95946.38;4940086;28;19929;-83
2023/04/07 05:49:11;;;;;;;;;;;5.60;79.30;;;4.48;73.05;95947.44;4939573;28;19922;-83
2023/04/07 05:51:39;;;;;;;;;;;5.70;78.80;;;4.56;72.42;95947.91;4939990;28;19928;-83
2023/04/07 05:54:12;;;;;;;;;;;5.80;78.00;;;4.67;72.13;95948.13;4961301;28;19922;-84
2023/04/07 05:56:40;;;;;;;;;;;5.90;77.80;;;4.82;71.68;95945.72;4971415;28;19937;-84
2023/04/07 05:59:08;;;;;;;;;;;6.00;77.30;;;4.95;70.82;95944.59;4971572;28;20244;-83
2023/04/07 06:01:38;;;;;;;;;;;6.20;76.60;;;5.05;70.43;95949.41;4972671;28;19928;-84
2023/04/07 06:04:06;;;;;;;;;;;6.20;76.00;;;5.14;70.13;95942.53;4955337;28;19922;-83
2023/04/07 06:06:34;;;;;;;;;;;6.40;75.60;;;5.23;69.99;95951.09;4971719;28;19923;-83
2023/04/07 06:09:03;;;;;;;;;;;6.40;75.50;;;5.30;70.03;95940.09;4971433;28;19926;-83
2023/04/07 06:11:31;;;;;;;;;;;6.50;75.60;;;5.36;69.86;95939.97;4971765;28;19922;-83
2023/04/07 06:13:59;;;;;;;;;;;6.60;75.20;;;5.43;69.52;95944.41;4955308;28;19936;-83
2023/04/07 06:16:29;;;;;;;;;;;6.60;75.20;;;5.47;69.41;95946.41;4955407;28;20278;-83
2023/04/07 06:18:59;;;;;;;;;;;6.70;75.20;;;5.52;69.75;95942.94;4971457;28;20121;-83
2023/04/07 06:21:30;;;;;;;;;;;6.70;75.20;;;5.55;69.76;95941.63;4971731;28;19982;-83
2023/04/07 06:23:58;;;;;;;;;;;6.80;75.20;;;5.56;69.58;95946.81;4955136;28;19928;-84
2023/04/07 06:26:26;;;;;;;;;;;6.80;75.20;;;5.57;69.59;95951.16;4955376;28;19922;-83
2023/04/07 06:28:56;;;;;;;;;;;6.80;75.10;;;5.56;69.69;95949.53;4955239;28;19923;-83
2023/04/07 06:31:25;;;;;;;;;;;6.80;75.10;;;5.55;69.96;95944.34;4955336;28;19922;-83
2023/04/07 06:33:53;;;;;;;;;;;6.80;75.10;;;5.52;69.58;95949.19;4971242;28;20122;-83
2023/04/07 06:36:23;;;;;;;;;;;6.80;75.10;;;5.49;69.61;95946.97;4972406;28;19922;-83
2023/04/07 06:38:51;;;;;;;;;;;6.80;75.20;;;5.48;70.08;95947.22;4972254;28;19928;-83
2023/04/07 06:41:19;;;;;;;;;;;6.70;75.30;;;5.46;70.33;95947.47;4955157;28;19923;-83
2023/04/07 06:43:50;;;;;;;;;;;6.70;75.50;;;5.44;70.18;95941.44;4955207;28;19922;-83
2023/04/07 06:46:18;;;;;;;;;;;6.70;75.70;;;5.45;70.46;95958.56;4971070;28;19980;-83
2023/04/07 06:48:46;;;;;;;;;;;6.70;75.70;;;5.43;70.41;95956.09;4970765;28;19922;-83
2023/04/07 06:51:14;;;;;;;;;;;6.70;75.70;;;5.42;70.28;95959.88;4971378;28;20228;-83
2023/04/07 06:53:46;;;;;;;;;;;6.70;75.80;;;5.42;70.48;95959.06;4970967;28;19922;-83
2023/04/07 06:56:14;;;;;;;;;;;6.70;76.00;;;5.41;70.71;95968.28;4972078;28;19922;-83
2023/04/07 06:58:42;;;;;;;;;;;6.60;75.90;;;5.41;70.81;95973.69;4970789;28;20113;-83
2023/04/07 07:01:10;;;;;;;;;;;6.70;76.20;;;5.40;70.49;95967.44;4972210;28;19928;-83
2023/04/07 07:03:38;;;;;;;;;;;6.70;76.20;;;5.40;70.74;95967.44;4954496;28;19929;-83
2023/04/07 07:06:06;;;;;;;;;;;6.60;76.20;;;5.42;71.03;95964.50;4954853;28;19933;-84
2023/04/07 07:08:34;;;;;;;;;;;6.60;76.30;;;5.41;71.10;95969.09;4974462;28;20121;-83
2023/04/07 07:11:04;;;;;;;;;;;6.70;76.50;;;5.42;71.07;95967.22;4975242;28;19922;-84
2023/04/07 07:13:32;;;;;;;;;;;6.70;76.50;;;5.43;70.86;95974.25;4957897;28;19937;-83
2023/04/07 07:16:00;;;;;;;;;;;6.60;76.40;;;5.43;70.95;95972.38;4958123;28;20217;-84
2023/04/07 07:18:28;;;;;;;;;;;6.70;76.40;;;5.43;71.19;95971.53;4957861;28;19922;-84
2023/04/07 07:20:56;;;;;;;;;;;6.60;76.50;;;5.43;71.04;95976.97;4975152;28;19922;-83
2023/04/07 07:23:24;;;;;;;;;;;6.70;76.50;;;5.40;70.51;95983.72;4958018;28;19944;-83
2023/04/07 07:25:52;;;;;;;;;;;6.60;76.30;;;5.37;71.03;95984.19;4973677;28;19922;-83
2023/04/07 07:28:22;;;;;;;;;;;6.60;76.40;;;5.35;70.96;95987.16;4973721;28;19922;-83
2023/04/07 07:30:50;;;;;;;;;;;6.60;76.40;;;5.29;70.92;95980.00;4973949;28;20113;-84
2023/04/07 07:33:18;;;;;;;;;;;6.60;76.40;;;5.25;71.34;95980.72;4957592;28;19922;-84
2023/04/07 07:35:46;;;;;;;;;;;6.50;76.60;;;5.21;71.07;95983.94;4957673;28;19922;-83
2023/04/07 07:38:14;;;;;;;;;;;6.50;76.70;;;5.17;71.39;95988.19;4973764;28;20214;-84
2023/04/07 07:40:42;;;;;;;;;;;6.40;76.70;;;5.15;71.51;95992.22;4957715;28;19928;-83
2023/04/07 07:43:10;;;;;;;;;;;6.40;76.90;;;5.14;71.72;95991.38;4974787;28;19928;-83
2023/04/07 07:45:39;;;;;;;;;;;6.40;77.10;;;5.13;71.62;95989.72;4973534;28;19922;-83
2023/04/07 07:48:07;;;;;;;;;;;6.40;77.20;;;5.10;71.55;95987.47;4973618;28;19928;-84
2023/04/07 07:50:35;;;;;;;;;;;6.30;77.10;;;5.09;71.56;95996.72;4974546;28;20236;-83
2023/04/07 07:53:03;;;;;;;;;;;6.40;77.20;;;5.08;71.74;95989.63;4957625;28;19928;-83
2023/04/07 07:55:31;;;;;;;;;;;6.30;77.30;;;5.06;71.65;95989.06;4976508;28;19922;-84
2023/04/07 07:57:59;;;;;;;;;;;6.30;77.30;;;5.05;71.82;95993.63;4960676;28;19929;-83
2023/04/07 08:00:27;;;;;;;;;;;6.30;77.60;;;5.00;72.22;95995.41;4971176;28;19923;-83
2023/04/07 08:02:57;;;;;;;;;;;6.30;77.60;;;5.02;72.25;95993.28;4957345;28;19922;-83
2023/04/07 08:05:25;;;;;;;;;;;6.20;77.60;;;5.01;72.14;96002.50;4936789;28;19922;-83
2023/04/07 08:07:54;;;;;;;;;;;6.20;77.60;;;4.99;72.14;95996.47;4972587;28;19936;-83
2023/04/07 08:10:23;;;;;;;;;;;6.20;77.60;;;4.99;72.02;96005.47;4940417;28;19922;-84
2023/04/07 08:12:51;;;;;;;;;;;6.20;77.70;;;4.97;71.97;96007.59;4960051;28;20125;-83
2023/04/07 08:15:20;;;;;;;;;;;6.20;77.70;;;4.96;72.08;96005.13;4973043;28;19929;-83
2023/04/07 08:17:48;;;;;;;;;;;6.20;77.90;;;4.95;72.16;96008.91;4956297;28;19930;-83
2023/04/07 08:20:17;;;;;;;;;;;6.20;77.80;;;4.93;72.43;96008.31;4955892;28;19922;-84
2023/04/07 08:22:45;;;;;;;;;;;6.20;77.90;;;4.91;72.31;96008.53;4940461;28;19929;-83
2023/04/07 08:25:13;;;;;;;;;;;6.20;77.90;;;4.90;72.37;96012.34;4955967;28;20091;-84
2023/04/07 08:27:41;;;;;;;;;;;6.20;77.90;;;4.89;71.97;96011.50;4973459;28;19929;-83
2023/04/07 08:30:09;;;;;;;;;;;6.10;78.00;;;4.88;72.25;95998.19;4940347;28;19930;-83
2023/04/07 08:32:37;;;;;;;;;;;6.10;78.00;;;4.87;72.20;96001.97;4956402;28;19922;-83
2023/04/07 08:35:05;;;;;;;;;;;6.10;78.00;;;4.86;72.29;95997.59;4940031;28;19930;-83
2023/04/07 08:37:35;;;;;;;;;;;6.10;78.00;;;4.84;72.33;96002.44;4956165;28;19922;-84
2023/04/07 08:40:03;;;;;;;;;;;6.10;78.20;;;4.83;72.36;96001.63;4937111;29;19922;-83
2023/04/07 08:42:32;;;;;;;;;;;6.10;78.20;;;4.84;72.48;96002.44;4936754;29;19931;-83
2023/04/07 08:45:03;;;;;;;;;;;6.10;78.30;;;4.83;72.18;96000.78;4936823;29;20118;-83
2023/04/07 08:47:32;;;;;;;;;;;6.10;78.30;;;4.82;72.58;96002.69;4962475;28;19930;-83
2023/04/07 08:50:02;;;;;;;;;;;6.10;78.40;;;4.81;72.48;96006.44;4973012;28;19922;-83
2023/04/07 08:52:33;;;;;;;;;;;6.00;78.20;;;4.80;72.68;96012.94;4955064;28;19942;-83
2023/04/07 08:55:05;;;;;;;;;;;6.10;78.40;;;4.81;72.73;96008.31;4984076;28;19928;-83
2023/04/07 08:57:33;;;;;;;;;;;6.00;78.30;;;4.80;72.49;96006.66;4988141;28;20206;-83
2023/04/07 09:00:04;;;;;;;;;;;6.00;78.30;;;4.79;72.33;96010.44;4971865;28;20205;-83
2023/04/07 09:02:33;;;;;;;;;;;6.00;78.30;;;4.78;72.85;96006.91;4946234;28;20121;-83
2023/04/07 09:05:02;;;;;;;;;;;6.00;78.40;;;4.79;72.68;96002.31;4972650;28;19922;-83
2023/04/07 09:07:31;;;;;;;;;;;6.00;78.40;;;4.78;72.49;96004.22;4971971;28;19938;-83
2023/04/07 09:09:59;;;;;;;;;;;6.00;78.40;;;4.78;72.40;96003.41;4955713;28;20132;-83
2023/04/07 09:12:29;;;;;;;;;;;6.00;78.30;;;4.77;72.48;96010.69;4955687;28;19933;-83
2023/04/07 09:14:57;;;;;;;;;;;6.00;78.40;;;4.78;72.46;96006.09;4971074;28;20411;-83
2023/04/07 09:17:25;;;;;;;;;;;6.00;78.40;;;4.77;72.60;96007.97;4955251;28;19922;-83
2023/04/07 09:19:53;;;;;;;;;;;6.00;78.40;;;4.77;72.52;96007.97;4955237;28;19922;-83
2023/04/07 09:22:34;;;;;;;;;;;6.00;78.30;;;4.79;72.58;96015.88;4971202;28;19930;-83
2023/04/07 09:25:16;;;;;;;;;;;6.00;78.40;;;4.78;72.63;96009.63;4955187;28;19928;-83
2023/04/07 09:27:58;;;;;;;;;;;6.00;78.50;;;4.78;72.73;96011.53;4971256;28;19928;-83
2023/04/07 09:30:26;;;;;;;;;;;6.00;78.50;;;4.76;72.78;96022.59;4970810;28;19922;-83
2023/04/07 09:32:54;;;;;;;;;;;6.00;78.40;;;4.75;72.48;96018.25;4955230;28;19926;-83
2023/04/07 09:35:23;;;;;;;;;;;6.00;78.30;;;4.74;72.51;96022.00;4955229;28;19929;-83
2023/04/07 09:38:05;;;;;;;;;;;6.00;78.40;;;4.72;72.65;96024.13;4971020;28;19940;-83
2023/04/07 09:40:33;;;;;;;;;;;6.00;78.50;;;4.70;72.85;96018.97;4971486;28;19928;-83
2023/04/07 09:43:02;;;;;;;;;;;6.00;78.50;;;4.67;72.91;96015.91;4955070;28;19928;-83
2023/04/07 09:45:32;;;;;;;;;;;5.90;78.50;;;4.66;72.75;96017.78;4954998;28;19922;-83
2023/04/07 09:48:00;;;;;;;;;;;5.90;78.70;;;4.65;73.12;96018.84;4970942;28;19922;-83
2023/04/07 09:50:32;;;;;;;;;;;5.90;78.80;;;4.64;73.22;96024.50;4955075;28;20237;-83
2023/04/07 09:53:01;;;;;;;;;;;5.90;78.80;;;4.63;72.96;96020.13;4971027;28;19922;-83
2023/04/07 09:55:29;;;;;;;;;;;5.80;78.70;;;4.62;73.20;96027.47;4970715;28;19944;-83
2023/04/07 09:57:57;;;;;;;;;;;5.90;78.90;;;4.60;73.13;96024.97;4981884;23;19922;-87
2023/04/07 10:00:26;;;;;;;;;;;5.80;78.80;;;4.59;73.02;96031.44;4986178;28;19922;-87
2023/04/07 10:02:55;;;;;;;;;;;5.80;78.80;;;4.59;73.06;96033.34;4962217;28;20106;-87
2023/04/07 10:05:23;;;;;;;;;;;5.80;78.90;;;4.58;72.89;96032.50;4963399;28;19973;-87
2023/04/07 10:07:51;;;;;;;;;;;5.80;79.00;;;4.58;73.10;96032.50;4972039;28;20149;-87
2023/04/07 10:10:19;;;;;;;;;;;5.80;78.90;;;4.56;73.19;96029.22;4956590;28;20228;-87
2023/04/07 10:12:47;;;;;;;;;;;5.80;79.00;;;4.57;73.28;96041.72;4952875;29;19929;-87
2023/04/07 10:15:15;;;;;;;;;;;5.80;79.00;;;4.57;73.47;96041.72;4944902;28;19945;-86
2023/04/07 10:17:47;;;;;;;;;;;5.80;79.00;;;4.57;72.96;96041.72;4970511;28;19922;-88
2023/04/07 10:20:16;;;;;;;;;;;5.80;79.00;;;4.56;72.97;96040.06;4952980;29;19929;-86
2023/04/07 10:22:45;;;;;;;;;;;5.80;79.10;;;4.56;73.10;96040.06;4936790;29;19922;-87
2023/04/07 10:25:14;;;;;;;;;;;5.80;79.10;;;4.56;73.34;96037.38;4952364;29;19922;-87
2023/04/07 10:27:49;;;;;;;;;;;5.80;79.20;;;4.52;73.28;96038.88;4936767;29;19923;-87
2023/04/07 10:30:18;;;;;;;;;;;5.80;79.10;;;4.55;73.03;96045.72;4936647;29;19928;-86
2023/04/07 10:32:48;;;;;;;;;;;5.80;79.10;;;4.54;73.55;96050.31;4936820;29;19945;-87
2023/04/07 10:35:17;;;;;;;;;;;5.80;79.10;;;4.55;73.73;96046.56;4952506;29;19937;-87
2023/04/07 10:38:20;;;;;;;;;;;5.80;79.20;;;4.55;73.15;96043.84;4952533;29;19941;-87
2023/04/07 10:40:48;;;;;;;;;;;5.80;79.30;;;4.55;73.19;96041.13;4957540;28;19922;-87
2023/04/07 10:43:36;;;;;;;;;;;5.80;79.20;;;4.56;73.17;96042.78;4975306;28;19922;-87
2023/04/07 10:46:04;;;;;;;;;;;5.80;79.20;;;4.56;73.32;96050.91;4966842;28;19922;-85
2023/04/07 10:48:34;;;;;;;;;;;5.80;79.30;;;4.56;73.31;96047.38;4975063;28;19951;-87
2023/04/07 10:51:15;;;;;;;;;;;5.80;79.30;;;4.57;73.45;96052.56;4959074;28;19939;-87
2023/04/07 10:54:25;;;;;;;;;;;5.80;79.30;;;4.55;73.46;96046.56;4975087;28;20213;-88
2023/04/07 10:57:09;;;;;;;;;;;5.80;79.30;;;4.57;73.70;96049.03;4974564;28;19961;-87
2023/04/07 10:59:37;;;;;;;;;;;5.80;79.30;;;4.55;73.32;96051.97;4991086;28;19938;-88
2023/04/07 11:02:33;;;;;;;;;;;5.80;79.30;;;4.57;73.29;96049.88;4958697;28;19922;-88
2023/04/07 11:05:03;;;;;;;;;;;5.80;79.30;;;4.55;73.34;96054.69;4980710;28;19923;-87
2023/04/07 11:07:52;;;;;;;;;;;5.80;79.30;;;4.56;73.48;96050.09;4955681;29;19929;-87
2023/04/07 11:10:22;;;;;;;;;;;5.80;79.30;;;4.55;73.18;96054.69;4939797;29;19929;-88
2023/04/07 11:13:00;;;;;;;;;;;5.80;79.30;;;4.56;73.38;96064.47;4939647;29;19929;-88
2023/04/07 11:15:28;;;;;;;;;;;5.80;79.30;;;4.56;73.69;96055.50;4955461;29;19922;-87
2023/04/07 11:18:16;;;;;;;;;;;5.80;79.30;;;4.56;73.41;96052.78;4954922;29;19944;-87
2023/04/07 11:20:48;;;;;;;;;;;5.80;79.40;;;4.54;73.21;96055.75;4939632;29;19923;-88
2023/04/07 11:23:16;;;;;;;;;;;5.80;79.40;;;4.55;73.51;96053.84;4960264;28;19945;-87
2023/04/07 11:25:45;;;;;;;;;;;5.80;79.30;;;4.55;73.60;96051.13;4974537;28;19944;-87
2023/04/07 11:28:13;;;;;;;;;;;5.80;79.40;;;4.53;73.26;96056.81;4957785;28;20125;-87
2023/04/07 11:30:51;;;;;;;;;;;5.80;79.40;;;4.53;73.65;96056.81;4974669;28;20137;-87
2023/04/07 11:33:20;;;;;;;;;;;5.80;79.50;;;4.53;73.51;96054.09;4958423;28;19982;-87
2023/04/07 11:35:54;;;;;;;;;;;5.80;79.50;;;4.52;73.47;96052.44;4991963;28;19922;-87
2023/04/07 11:38:23;;;;;;;;;;;5.80;79.50;;;4.52;73.54;96054.34;4990619;28;19945;-87
2023/04/07 11:40:52;;;;;;;;;;;5.80;79.40;;;4.54;73.23;96063.03;4973862;28;19944;-87
2023/04/07 11:43:20;;;;;;;;;;;5.80;79.40;;;4.54;73.75;96057.63;4974513;28;19922;-88
2023/04/07 11:46:04;;;;;;;;;;;5.80;79.50;;;4.53;73.42;96059.53;4960165;28;19929;-87
2023/04/07 11:48:33;;;;;;;;;;;5.80;79.40;;;4.55;73.77;96065.53;4955045;29;20432;-88
2023/04/07 11:51:03;;;;;;;;;;;5.80;79.40;;;4.54;73.70;96055.75;4955177;29;20210;-87